createdAt,value
2017-11-20T00:01:07.028Z,7.50
2017-11-20T00:03:35.294Z,7.40
2017-11-20T00:06:03.599Z,7.40
2017-11-20T00:08:32.707Z,7.40
2017-11-20T00:11:00.984Z,7.40
2017-11-20T00:13:29.279Z,7.40
2017-11-20T00:15:57.598Z,7.40
2017-11-20T00:18:25.878Z,7.40
2017-11-20T00:20:54.165Z,7.30
2017-11-20T00:23:22.483Z,7.20
2017-11-20T00:25:50.783Z,7.20
2017-11-20T00:28:19.087Z,7.20
2017-11-20T00:30:47.794Z,7.20
2017-11-20T00:33:16.079Z,7.20
2017-11-20T00:35:44.386Z,7.10
2017-11-20T00:38:13.121Z,7.10
2017-11-20T00:40:42.191Z,7.10
2017-11-20T00:43:10.484Z,7.00
2017-11-20T00:45:38.821Z,7.00
2017-11-20T00:48:07.103Z,7.00
2017-11-20T00:50:35.387Z,7.00
2017-11-20T00:53:03.726Z,7.00
2017-11-20T00:55:32.009Z,6.90
2017-11-20T00:58:01.067Z,7.00
2017-11-20T01:00:29.393Z,7.00
2017-11-20T01:02:58.435Z,6.90
2017-11-20T01:05:26.739Z,6.90
2017-11-20T01:07:55.058Z,6.90
2017-11-20T01:10:24.112Z,6.90
2017-11-20T01:12:52.418Z,6.90
2017-11-20T01:15:20.742Z,6.80
2017-11-20T01:17:49.778Z,6.70
2017-11-20T01:20:18.062Z,6.80
2017-11-20T01:25:16.327Z,6.70
2017-11-20T01:27:44.604Z,6.70
2017-11-20T01:30:14.444Z,6.80
2017-11-20T01:32:43.496Z,6.80
2017-11-20T01:35:11.780Z,6.80
2017-11-20T01:37:40.106Z,6.80
2017-11-20T01:40:09.153Z,6.70
2017-11-20T01:42:37.429Z,6.80
2017-11-20T01:47:35.729Z,6.80
2017-11-20T01:52:33.703Z,6.80
2017-11-20T01:55:02.380Z,6.80
2017-11-20T01:57:31.790Z,6.80
2017-11-20T02:00:00.152Z,6.80
2017-11-20T02:02:29.195Z,6.90
2017-11-20T02:04:57.904Z,6.90
2017-11-20T02:07:26.234Z,6.80
2017-11-20T02:09:54.880Z,6.90
2017-11-20T02:12:23.173Z,6.90
2017-11-20T02:14:51.500Z,6.90
2017-11-20T02:17:20.567Z,6.80
2017-11-20T02:19:48.847Z,6.90
2017-11-20T02:22:17.188Z,6.90
2017-11-20T02:27:16.114Z,6.90
2017-11-20T02:29:44.462Z,7.00
2017-11-20T02:34:42.280Z,6.80
2017-11-20T02:37:11.538Z,6.80
2017-11-20T02:39:39.813Z,6.80
2017-11-20T02:42:08.860Z,6.90
2017-11-20T02:44:37.963Z,6.80
2017-11-20T02:47:06.265Z,6.70
2017-11-20T02:49:36.053Z,6.80
2017-11-20T02:52:05.349Z,6.80
2017-11-20T02:54:34.022Z,6.80
2017-11-20T02:57:03.074Z,6.80
2017-11-20T02:59:31.424Z,6.80
2017-11-20T03:01:59.702Z,6.80
2017-11-20T03:04:27.974Z,6.80
2017-11-20T03:06:57.435Z,6.80
2017-11-20T03:09:25.712Z,6.80
2017-11-20T03:11:54.032Z,6.80
2017-11-20T03:14:22.374Z,6.70
2017-11-20T03:16:51.415Z,6.80
2017-11-20T03:19:20.465Z,6.80
2017-11-20T03:21:49.551Z,6.80
2017-11-20T03:24:18.595Z,6.80
2017-11-20T03:26:47.644Z,6.90
2017-11-20T03:29:15.984Z,6.90
2017-11-20T03:31:44.273Z,6.90
2017-11-20T03:34:12.565Z,6.90
2017-11-20T03:36:41.827Z,7.10
2017-11-20T03:39:10.866Z,7.10
2017-11-20T03:41:39.143Z,7.00
2017-11-20T03:44:09.783Z,7.00
2017-11-20T03:46:38.834Z,6.90
2017-11-20T03:49:07.892Z,6.90
2017-11-20T03:51:37.366Z,6.80
2017-11-20T03:54:05.642Z,6.80
2017-11-20T03:56:33.920Z,6.80
2017-11-20T03:59:02.237Z,6.70
2017-11-20T04:01:30.543Z,6.70
2017-11-20T04:03:59.215Z,6.80
2017-11-20T04:06:27.707Z,6.90
2017-11-20T04:11:25.535Z,7.00
2017-11-20T04:13:54.635Z,7.00
2017-11-20T04:16:24.410Z,7.00
2017-11-20T04:18:52.712Z,6.90
2017-11-20T04:21:21.063Z,6.80
2017-11-20T04:23:49.330Z,6.80
2017-11-20T04:26:18.376Z,6.90
2017-11-20T04:33:45.719Z,6.80
2017-11-20T04:36:14.796Z,6.80
2017-11-20T04:38:43.835Z,6.80
2017-11-20T04:41:12.883Z,6.80
2017-11-20T04:43:41.201Z,6.90
2017-11-20T04:46:09.483Z,6.90
2017-11-20T04:48:37.785Z,6.90
2017-11-20T04:51:06.105Z,6.80
2017-11-20T04:53:35.532Z,6.80
2017-11-20T04:56:03.804Z,6.80
2017-11-20T04:58:32.136Z,6.80
2017-11-20T05:01:00.404Z,6.80
2017-11-20T05:03:28.680Z,6.80
2017-11-20T05:05:57.031Z,6.80
2017-11-20T05:08:25.298Z,6.90
2017-11-20T05:10:54.703Z,6.90
2017-11-20T05:13:23.417Z,6.80
2017-11-20T05:15:51.695Z,6.90
2017-11-20T05:20:49.554Z,6.90
2017-11-20T05:23:17.823Z,6.80
2017-11-20T05:28:19.178Z,6.80
2017-11-20T05:30:47.460Z,6.70
2017-11-20T05:33:15.795Z,6.60
2017-11-20T05:35:45.575Z,6.60
2017-11-20T05:38:13.863Z,6.70
2017-11-20T05:40:42.196Z,6.70
2017-11-20T05:43:10.475Z,6.60
2017-11-20T05:45:38.758Z,6.60
2017-11-20T05:50:36.599Z,6.60
2017-11-20T05:53:04.876Z,6.50
2017-11-20T05:55:33.622Z,6.60
2017-11-20T05:58:03.055Z,6.70
2017-11-20T06:00:31.335Z,6.70
2017-11-20T06:02:59.667Z,6.80
2017-11-20T06:05:27.951Z,6.90
2017-11-20T06:07:57.386Z,6.90
2017-11-20T06:10:27.259Z,6.80
2017-11-20T06:12:55.554Z,6.80
2017-11-20T06:15:23.855Z,6.70
2017-11-20T06:17:52.199Z,6.80
2017-11-20T06:20:21.249Z,6.80
2017-11-20T06:22:49.547Z,6.80
2017-11-20T06:25:18.658Z,6.90
2017-11-20T06:27:46.936Z,6.80
2017-11-20T06:30:15.992Z,6.90
2017-11-20T06:32:44.324Z,6.80
2017-11-20T06:35:12.646Z,6.90
2017-11-20T06:37:40.920Z,6.90
2017-11-20T06:40:09.251Z,6.90
2017-11-20T06:42:37.543Z,7.00
2017-11-20T06:45:07.708Z,7.00
2017-11-20T06:47:36.812Z,7.00
2017-11-20T06:50:05.092Z,7.00
2017-11-20T06:52:33.371Z,7.00
2017-11-20T06:55:01.693Z,6.90
2017-11-20T06:57:31.146Z,6.90
2017-11-20T06:59:59.434Z,6.90
2017-11-20T07:02:28.559Z,7.00
2017-11-20T07:04:57.232Z,6.90
2017-11-20T07:07:25.530Z,6.80
2017-11-20T07:09:53.871Z,6.70
2017-11-20T07:12:22.152Z,6.70
2017-11-20T07:14:50.427Z,6.70
2017-11-20T07:17:18.757Z,6.80
2017-11-20T07:19:47.055Z,6.80
2017-11-20T07:22:15.340Z,6.60
2017-11-20T07:24:43.676Z,6.70
2017-11-20T07:27:24.295Z,6.70
2017-11-20T07:30:04.554Z,6.70
2017-11-20T07:32:32.839Z,6.50
2017-11-20T07:35:01.124Z,6.50
2017-11-20T07:37:42.911Z,6.50
2017-11-20T07:40:18.666Z,6.40
2017-11-20T07:42:46.993Z,6.50
2017-11-20T07:45:15.267Z,6.50
2017-11-20T07:47:43.548Z,6.50
2017-11-20T07:50:11.891Z,6.60
2017-11-20T07:52:40.171Z,6.50
2017-11-20T07:55:08.459Z,6.50
2017-11-20T07:57:36.789Z,6.40
2017-11-20T08:00:05.097Z,6.40
2017-11-20T08:02:33.408Z,6.30
2017-11-20T08:05:01.764Z,6.30
2017-11-20T08:07:30.451Z,6.20
2017-11-20T08:09:59.512Z,6.30
2017-11-20T08:12:28.770Z,6.30
2017-11-20T08:14:57.039Z,6.20
2017-11-20T08:17:25.321Z,6.20
2017-11-20T08:19:54.794Z,6.10
2017-11-20T08:22:23.468Z,6.30
2017-11-20T08:24:51.760Z,6.30
2017-11-20T08:27:20.104Z,6.40
2017-11-20T08:29:48.381Z,6.40
2017-11-20T08:32:16.658Z,6.40
2017-11-20T08:34:45.751Z,6.40
2017-11-20T08:37:14.023Z,6.40
2017-11-20T08:39:42.295Z,6.40
2017-11-20T08:42:10.630Z,6.50
2017-11-20T08:44:38.923Z,6.50
2017-11-20T08:47:07.191Z,6.50
2017-11-20T08:49:36.471Z,6.50
2017-11-20T08:52:05.508Z,6.40
2017-11-20T08:54:34.562Z,6.40
2017-11-20T08:57:02.903Z,6.40
2017-11-20T08:59:31.184Z,6.40
2017-11-20T09:01:59.455Z,6.40
2017-11-20T09:06:57.486Z,6.30
2017-11-20T09:09:25.791Z,6.20
2017-11-20T09:11:54.108Z,6.20
2017-11-20T09:14:22.383Z,6.30
2017-11-20T09:16:51.800Z,6.30
2017-11-20T09:19:20.134Z,6.20
2017-11-20T09:21:48.410Z,6.30
2017-11-20T09:26:46.621Z,6.30
2017-11-20T09:29:14.887Z,6.30
2017-11-20T09:31:43.196Z,6.30
2017-11-20T09:34:12.276Z,6.30
2017-11-20T09:36:40.569Z,6.30
2017-11-20T09:39:08.863Z,6.30
2017-11-20T09:41:37.210Z,6.30
2017-11-20T09:44:06.639Z,6.30
2017-11-20T09:49:04.883Z,6.30
2017-11-20T09:51:33.161Z,6.20
2017-11-20T09:54:01.455Z,6.20
2017-11-20T09:56:29.770Z,6.20
2017-11-20T09:58:58.041Z,6.20
2017-11-20T10:01:27.827Z,6.20
2017-11-20T10:03:56.163Z,6.30
2017-11-20T10:06:24.439Z,6.30
2017-11-20T10:08:52.714Z,6.30
2017-11-20T10:11:21.055Z,6.40
2017-11-20T10:13:49.727Z,6.40
2017-11-20T10:16:18.051Z,6.40
2017-11-20T10:18:46.834Z,6.40
2017-11-20T10:26:14.605Z,6.30
2017-11-20T10:28:42.871Z,6.40
2017-11-20T10:31:11.183Z,6.40
2017-11-20T10:33:41.005Z,6.50
2017-11-20T10:36:09.286Z,6.50
2017-11-20T10:38:37.993Z,6.60
2017-11-20T10:41:06.300Z,6.60
2017-11-20T10:43:35.718Z,6.60
2017-11-20T10:46:04.028Z,6.70
2017-11-20T10:48:32.351Z,6.60
2017-11-20T10:51:00.648Z,6.60
2017-11-20T10:53:29.714Z,6.60
2017-11-20T10:58:27.962Z,6.60
2017-11-20T11:00:56.240Z,6.60
2017-11-20T11:03:26.061Z,6.60
2017-11-20T11:05:54.358Z,6.60
2017-11-20T11:08:22.615Z,6.60
2017-11-20T11:10:50.970Z,6.60
2017-11-20T11:13:19.262Z,6.50
2017-11-20T11:15:47.532Z,6.50
2017-11-20T11:18:17.808Z,6.40
2017-11-20T11:20:46.079Z,6.40
2017-11-20T11:23:15.490Z,6.30
2017-11-20T11:25:43.815Z,6.30
2017-11-20T11:28:12.094Z,6.30
2017-11-20T11:30:41.522Z,6.30
2017-11-20T11:33:10.235Z,6.20
2017-11-20T11:38:08.011Z,6.20
2017-11-20T11:40:36.324Z,6.30
2017-11-20T11:43:04.625Z,6.30
2017-11-20T11:45:34.204Z,6.30
2017-11-20T11:48:04.451Z,6.30
2017-11-20T11:50:32.751Z,6.30
2017-11-20T11:53:01.049Z,6.40
2017-11-20T11:55:29.372Z,6.40
2017-11-20T11:57:57.648Z,6.40
2017-11-20T12:00:27.072Z,6.40
2017-11-20T12:02:56.162Z,6.40
2017-11-20T12:05:25.199Z,6.40
2017-11-20T12:07:54.254Z,6.40
2017-11-20T12:10:23.723Z,6.40
2017-11-20T12:12:52.000Z,6.30
2017-11-20T12:15:20.283Z,6.30
2017-11-20T12:17:48.608Z,6.40
2017-11-20T12:20:17.648Z,6.40
2017-11-20T12:22:45.942Z,6.40
2017-11-20T12:25:14.295Z,6.40
2017-11-20T12:27:44.135Z,6.40
2017-11-20T12:30:13.988Z,6.40
2017-11-20T12:32:42.266Z,6.60
2017-11-20T12:37:40.491Z,6.50
2017-11-20T12:40:08.771Z,6.50
2017-11-20T12:42:37.064Z,6.50
2017-11-20T12:45:05.454Z,6.50
2017-11-20T12:47:33.742Z,6.50
2017-11-20T12:50:02.024Z,6.60
2017-11-20T12:52:31.856Z,6.50
2017-11-20T12:55:01.281Z,6.50
2017-11-20T12:57:30.335Z,6.50
2017-11-20T12:59:59.435Z,6.60
2017-11-20T13:02:28.861Z,6.50
2017-11-20T13:04:57.546Z,6.60
2017-11-20T13:07:25.910Z,6.70
2017-11-20T13:09:54.191Z,6.70
2017-11-20T13:12:22.866Z,6.70
2017-11-20T13:14:51.984Z,6.80
2017-11-20T13:17:20.282Z,6.80
2017-11-20T13:19:48.566Z,6.80
2017-11-20T13:22:16.928Z,6.90
2017-11-20T13:24:45.608Z,6.80
2017-11-20T13:27:15.041Z,6.80
2017-11-20T13:29:43.423Z,6.80
2017-11-20T13:32:11.728Z,6.90
2017-11-20T13:34:40.043Z,6.90
2017-11-20T13:37:09.172Z,6.90
2017-11-20T13:39:38.231Z,7.00
2017-11-20T13:42:07.286Z,7.00
2017-11-20T13:44:35.622Z,7.00
2017-11-20T13:47:05.408Z,7.00
2017-11-20T13:49:33.709Z,7.00
2017-11-20T13:54:31.976Z,7.00
2017-11-20T13:57:00.262Z,7.00
2017-11-20T13:59:28.596Z,7.00
2017-11-20T14:01:56.896Z,7.00
2017-11-20T14:04:25.203Z,7.00
2017-11-20T14:06:53.532Z,7.00
2017-11-20T14:09:22.980Z,7.10
2017-11-20T14:12:51.549Z,7.10
2017-11-20T14:15:19.841Z,7.10
2017-11-20T14:17:48.141Z,7.20
2017-11-20T14:20:17.265Z,7.20
2017-11-20T14:22:46.316Z,7.10
2017-11-20T14:25:15.367Z,7.10
2017-11-20T14:27:43.708Z,7.10
2017-11-20T14:30:11.988Z,7.20
2017-11-20T14:32:40.280Z,7.20
2017-11-20T14:35:08.695Z,7.20
2017-11-20T14:37:37.841Z,7.30
2017-11-20T14:40:06.131Z,7.30
2017-11-20T14:42:35.408Z,7.30
2017-11-20T14:45:04.484Z,7.30
2017-11-20T14:47:32.767Z,7.40
2017-11-20T14:50:01.104Z,7.40
2017-11-20T14:52:30.216Z,7.40
2017-11-20T14:55:00.009Z,7.50
2017-11-20T14:57:28.734Z,7.50
2017-11-20T14:59:57.796Z,7.40
2017-11-20T15:02:26.103Z,7.40
2017-11-20T15:04:54.427Z,7.40
2017-11-20T15:07:23.132Z,7.40
2017-11-20T15:12:21.372Z,7.50
2017-11-20T15:14:49.656Z,7.50
2017-11-20T15:17:17.929Z,7.60
2017-11-20T15:19:46.252Z,7.60
2017-11-20T15:22:14.550Z,7.50
2017-11-20T15:24:42.834Z,7.60
2017-11-20T15:27:11.171Z,7.60
2017-11-20T15:29:40.612Z,7.60
2017-11-20T15:32:08.895Z,7.70
2017-11-20T15:34:37.375Z,7.70
2017-11-20T15:37:05.658Z,7.70
2017-11-20T15:39:34.729Z,7.80
2017-11-20T15:42:05.455Z,7.80
2017-11-20T15:44:33.736Z,7.90
2017-11-20T15:47:02.035Z,7.90
2017-11-20T15:49:31.132Z,7.90
2017-11-20T15:51:59.412Z,7.90
2017-11-20T15:54:27.692Z,8.00
2017-11-20T15:56:56.023Z,8.00
2017-11-20T15:59:24.330Z,8.00
2017-11-20T16:01:52.611Z,8.10
2017-11-20T16:04:20.940Z,8.10
2017-11-20T16:06:50.727Z,8.10
2017-11-20T16:09:19.008Z,8.10
2017-11-20T16:14:16.975Z,8.20
2017-11-20T16:16:45.259Z,8.20
2017-11-20T16:19:13.600Z,8.30
2017-11-20T16:21:42.298Z,8.30
2017-11-20T16:24:11.708Z,8.30
2017-11-20T16:26:40.828Z,8.40
2017-11-20T16:29:09.112Z,8.40
2017-11-20T16:31:37.390Z,8.40
2017-11-20T16:34:06.860Z,8.40
2017-11-20T16:36:35.143Z,8.40
2017-11-20T16:39:03.890Z,8.40
2017-11-20T16:41:32.219Z,8.50
2017-11-20T16:44:00.500Z,8.60
2017-11-20T16:46:28.779Z,8.50
2017-11-20T16:48:57.883Z,8.60
2017-11-20T16:51:26.176Z,8.60
2017-11-20T16:53:54.849Z,8.60
2017-11-20T16:56:23.334Z,8.60
2017-11-20T16:59:01.646Z,8.60
2017-11-20T17:01:42.231Z,8.70
2017-11-20T17:04:10.535Z,8.70
2017-11-20T17:06:39.609Z,8.70
2017-11-20T17:09:07.963Z,8.80
2017-11-20T17:11:36.631Z,8.80
2017-11-20T17:14:04.906Z,8.80
2017-11-20T17:16:33.274Z,8.90
2017-11-20T17:19:01.580Z,8.90
2017-11-20T17:21:29.863Z,8.90
2017-11-20T17:23:59.342Z,9.00
2017-11-20T17:26:27.620Z,8.90
2017-11-20T17:28:56.700Z,9.00
2017-11-20T17:31:25.799Z,9.10
2017-11-20T17:33:54.086Z,9.10
2017-11-20T17:36:22.363Z,9.20
2017-11-20T17:38:51.016Z,9.20
2017-11-20T17:41:19.304Z,9.30
2017-11-20T17:43:48.347Z,9.20
2017-11-20T17:46:16.691Z,9.20
2017-11-20T17:48:45.368Z,9.20
2017-11-20T17:51:13.644Z,9.30
2017-11-20T17:53:42.743Z,9.40
2017-11-20T17:56:11.445Z,9.40
2017-11-20T17:58:40.872Z,9.40
2017-11-20T18:01:09.201Z,9.50
2017-11-20T18:03:37.527Z,9.50
2017-11-20T18:06:05.816Z,9.50
2017-11-20T18:08:34.444Z,9.40
2017-11-20T18:11:04.224Z,9.40
2017-11-20T18:13:32.892Z,9.60
2017-11-20T18:16:03.215Z,9.60
2017-11-20T18:18:32.267Z,9.60
2017-11-20T18:21:00.967Z,9.60
2017-11-20T18:23:30.074Z,9.60
2017-11-20T18:25:59.144Z,9.70
2017-11-20T18:30:57.379Z,9.80
2017-11-20T18:33:26.422Z,9.80
2017-11-20T18:35:54.721Z,9.80
2017-11-20T18:38:23.041Z,9.80
2017-11-20T18:40:53.274Z,9.80
2017-11-20T18:43:21.556Z,9.90
2017-11-20T18:45:49.916Z,9.90
2017-11-20T18:48:18.969Z,9.90
2017-11-20T18:50:47.259Z,10.00
2017-11-20T18:53:15.587Z,9.90
2017-11-20T18:55:44.632Z,9.90
2017-11-20T18:58:14.077Z,10.00
2017-11-20T19:00:54.431Z,10.00
2017-11-20T19:03:25.172Z,10.00
2017-11-20T19:06:06.990Z,10.00
2017-11-20T19:08:40.819Z,10.00
2017-11-20T19:11:09.930Z,10.00
2017-11-20T19:13:38.248Z,10.00
2017-11-20T19:18:36.494Z,10.00
2017-11-20T19:23:35.092Z,10.10
2017-11-20T19:26:03.432Z,10.20
2017-11-20T19:28:32.878Z,10.20
2017-11-20T19:31:01.924Z,10.20
2017-11-20T19:33:30.261Z,10.20
2017-11-20T19:36:00.064Z,10.30
2017-11-20T19:38:28.362Z,10.30
2017-11-20T19:40:56.715Z,10.20
2017-11-20T19:43:26.155Z,10.20
2017-11-20T19:45:54.435Z,10.20
2017-11-20T19:48:22.792Z,10.20
2017-11-20T19:50:51.077Z,10.20
2017-11-20T19:53:20.163Z,10.30
2017-11-20T19:58:18.438Z,10.30
2017-11-20T20:00:48.232Z,10.30
2017-11-20T20:03:16.580Z,10.30
2017-11-20T20:08:14.828Z,10.30
2017-11-20T20:10:43.923Z,10.30
2017-11-20T20:13:13.714Z,10.30
2017-11-20T20:15:48.934Z,10.40
2017-11-20T20:18:18.043Z,10.40
2017-11-20T20:20:46.344Z,10.40
2017-11-20T20:23:15.811Z,10.40
2017-11-20T20:25:44.099Z,10.40
2017-11-20T20:28:13.528Z,10.40
2017-11-20T20:30:42.667Z,10.30
2017-11-20T20:33:10.995Z,10.40
2017-11-20T20:35:40.040Z,10.40
2017-11-20T20:38:08.370Z,10.40
2017-11-20T20:40:37.420Z,10.50
2017-11-20T20:43:06.140Z,10.60
2017-11-20T20:45:34.473Z,10.50
2017-11-20T20:48:02.799Z,10.50
2017-11-20T20:50:31.846Z,10.50
2017-11-20T20:53:02.007Z,10.60
2017-11-20T20:55:28.888Z,10.60
2017-11-20T20:57:57.172Z,10.60
2017-11-20T21:00:25.500Z,10.50
2017-11-20T21:02:53.782Z,10.60
2017-11-20T21:05:22.071Z,10.60
2017-11-20T21:07:50.421Z,10.60
2017-11-20T21:10:24.311Z,10.70
2017-11-20T21:12:52.636Z,10.70
2017-11-20T21:15:20.918Z,10.70
2017-11-20T21:17:49.203Z,10.70
2017-11-20T21:20:17.932Z,10.60
2017-11-20T21:22:46.222Z,10.60
2017-11-20T21:25:16.010Z,10.70
2017-11-20T21:27:44.353Z,10.70
2017-11-20T21:30:13.410Z,10.80
2017-11-20T21:32:42.455Z,10.80
2017-11-20T21:35:10.804Z,10.70
2017-11-20T21:37:39.874Z,10.70
2017-11-20T21:40:08.928Z,10.80
2017-11-20T21:42:37.262Z,10.90
2017-11-20T21:45:05.551Z,10.90
2017-11-20T21:50:04.228Z,10.90
2017-11-20T21:52:32.508Z,10.80
2017-11-20T21:55:01.583Z,10.80
2017-11-20T21:57:29.943Z,10.80
2017-11-20T21:59:58.246Z,10.80
2017-11-20T22:05:00.188Z,10.90
2017-11-20T22:07:28.489Z,11.00
2017-11-20T22:09:56.790Z,10.90
2017-11-20T22:12:36.917Z,10.90
2017-11-20T22:15:05.198Z,10.90
2017-11-20T22:17:33.490Z,10.90
2017-11-20T22:20:01.825Z,10.90
2017-11-20T22:22:31.248Z,10.90
2017-11-20T22:24:59.545Z,11.00
2017-11-20T22:27:27.881Z,11.00
2017-11-20T22:29:56.945Z,10.90
2017-11-20T22:32:26.002Z,10.90
2017-11-20T22:34:54.640Z,11.00
2017-11-20T22:37:23.340Z,11.00
2017-11-20T22:39:52.782Z,11.00
2017-11-20T22:42:21.544Z,11.00
2017-11-20T22:44:49.825Z,11.10
2017-11-20T22:47:18.115Z,11.10
2017-11-20T22:49:46.458Z,11.10
2017-11-20T22:52:14.751Z,11.00
2017-11-20T22:54:43.039Z,11.00
2017-11-20T22:57:11.375Z,11.10
2017-11-20T22:59:41.183Z,11.10
2017-11-20T23:02:09.468Z,11.20
2017-11-20T23:04:37.794Z,11.20
2017-11-20T23:07:07.224Z,11.20
2017-11-20T23:09:35.516Z,11.20
2017-11-20T23:14:34.165Z,11.20
2017-11-20T23:17:03.227Z,11.20
2017-11-20T23:19:31.555Z,11.20
2017-11-20T23:22:00.614Z,11.30
2017-11-20T23:24:29.667Z,11.30
2017-11-20T23:26:58.021Z,11.30
2017-11-20T23:29:26.304Z,11.30
2017-11-20T23:34:24.928Z,11.40
2017-11-20T23:36:53.216Z,11.30
2017-11-20T23:39:22.264Z,11.30
2017-11-20T23:41:51.382Z,11.30
2017-11-20T23:44:20.795Z,11.20
2017-11-20T23:46:49.091Z,11.30
2017-11-20T23:49:17.428Z,11.30
2017-11-20T23:51:46.481Z,11.30
2017-11-20T23:54:27.502Z,11.30
2017-11-20T23:56:55.793Z,11.30
2017-11-20T23:59:24.490Z,11.30
